LESA

Salamanca Airport

Salamanca, Spain
TAF LESA 162300Z 1700/1724 28007KT 9999 SCT014 BKN040 TX07/1716Z TNM06/1706Z TEMPO 1700/1713 2500 BR BCFG BKN006 PROB40 TEMPO 1703/1711 0150 FZFG VV001 BECMG 1715/1718 FEW020
Issued Valid From Valid To
Jan-16 @ 23:00 UTC
(7 hours ago)
Jan-17 @ 00:00 UTC
(6 hours ago)
Jan-18 @ 00:00 UTC
(in 18 hours)
Jan-17 @ 00:00 to Jan-17 @ 15:00
TAF LESA 162300Z 1700/1724 28007KT 9999 SCT014 BKN040 TX07/1716Z TNM06/1706Z
Wind Visibility Clouds
280° at 7 knots 10,000+ meters
  • Scattered at 1,400' AGL
  • Broken at 4,000' AGL
Temporary Jan-17 @ 00:00 to Jan-17 @ 13:00
TEMPO 1700/1713 2500 BR BCFG BKN006
Visibility Clouds Conditions
2,494 meters
  • Broken at 600' AGL
  • Mist
  • Patches of
  • Fog
Temporary  (Probability 40%) Jan-17 @ 03:00 to Jan-17 @ 11:00
PROB40 TEMPO 1703/1711 0150 FZFG VV001
Visibility Clouds Conditions
145 meters
  • Vertical visibility at 100' AGL
  • Freezing
  • Fog
Becoming Jan-17 @ 15:00 to Jan-18 @ 00:00
BECMG 1715/1718 FEW020
Wind Visibility Clouds
280° at 7 knots 10,000+ meters
  • Few at 2,000' AGL
TAF LESA 162300Z 1700/1724 28007KT 9999 SCT014 BKN040 TX07/1716Z TNM06/1706Z TEMPO 1700/1713 2500 BR BCFG BKN006 PROB40 TEMPO 1703/1711 0150 FZFG VV001 BECMG 1715/1718 FEW020
Issued Jan-16 @ 23:00 UTC
(7 hours ago)
Valid From Jan-17 @ 00:00 UTC
(6 hours ago)
Valid To Jan-18 @ 00:00 UTC
(in 18 hours)
Jan-17 @ 00:00 - Jan-17 @ 15:00
Wind Visibility
280° at 7 knots 10,000+ meters
Clouds
  • Scattered at 1,400' AGL
  • Broken at 4,000' AGL
Temporary Jan-17 @ 00:00 - Jan-17 @ 13:00
Clouds
  • Broken at 600' AGL
Conditions
  • Mist
  • Patches of
  • Fog
Probability 40% Temporary Jan-17 @ 03:00 - Jan-17 @ 11:00
Clouds
  • Vertical visibility at 100' AGL
Conditions
  • Freezing
  • Fog
Becoming Jan-17 @ 15:00 - Jan-18 @ 00:00
Wind Visibility
280° at 7 knots 10,000+ meters
Clouds
  • Few at 2,000' AGL